sensor_id;sensor_type;location;lat;lon;timestamp;P1;durP1;ratioP1;P2;durP2;ratioP2
31974;SDS011;18500;43.618;1.474;2024-03-06T06:52:42;8.82;;;5.82;;
31974;SDS011;18500;43.618;1.474;2024-03-06T06:55:08;8.25;;;6.75;;
31974;SDS011;18500;43.618;1.474;2024-03-06T06:57:36;8.10;;;7.03;;
31974;SDS011;18500;43.618;1.474;2024-03-06T07:00:03;8.73;;;6.68;;
31974;SDS011;18500;43.618;1.474;2024-03-06T07:02:38;13.68;;;8.02;;
31974;SDS011;18500;43.618;1.474;2024-03-06T07:05:06;10.15;;;7.55;;
31974;SDS011;18500;43.618;1.474;2024-03-06T07:07:33;14.70;;;8.35;;
31974;SDS011;18500;43.618;1.474;2024-03-06T07:09:59;9.70;;;6.43;;
31974;SDS011;18500;43.618;1.474;2024-03-06T07:12:24;7.55;;;6.50;;
31974;SDS011;18500;43.618;1.474;2024-03-06T07:14:50;10.45;;;6.03;;
31974;SDS011;18500;43.618;1.474;2024-03-06T07:17:16;11.27;;;6.20;;
31974;SDS011;18500;43.618;1.474;2024-03-06T07:19:41;12.50;;;6.18;;
31974;SDS011;18500;43.618;1.474;2024-03-06T07:22:07;11.30;;;6.72;;
31974;SDS011;18500;43.618;1.474;2024-03-06T07:24:33;16.38;;;8.10;;
31974;SDS011;18500;43.618;1.474;2024-03-06T07:26:59;10.07;;;6.43;;
31974;SDS011;18500;43.618;1.474;2024-03-06T07:29:26;12.85;;;7.22;;
31974;SDS011;18500;43.618;1.474;2024-03-06T07:31:52;9.88;;;7.10;;
31974;SDS011;18500;43.618;1.474;2024-03-06T07:34:19;29.75;;;14.02;;
31974;SDS011;18500;43.618;1.474;2024-03-06T07:36:46;10.35;;;6.65;;
31974;SDS011;18500;43.618;1.474;2024-03-06T07:39:14;9.20;;;5.63;;
31974;SDS011;18500;43.618;1.474;2024-03-06T07:41:40;14.90;;;7.03;;
31974;SDS011;18500;43.618;1.474;2024-03-06T07:44:06;11.10;;;6.18;;
31974;SDS011;18500;43.618;1.474;2024-03-06T07:46:33;11.63;;;6.10;;
31974;SDS011;18500;43.618;1.474;2024-03-06T07:49:00;10.75;;;6.57;;
31974;SDS011;18500;43.618;1.474;2024-03-06T07:51:28;13.15;;;6.70;;
31974;SDS011;18500;43.618;1.474;2024-03-06T07:53:56;16.92;;;7.78;;
31974;SDS011;18500;43.618;1.474;2024-03-06T07:56:23;13.00;;;6.10;;
31974;SDS011;18500;43.618;1.474;2024-03-06T07:58:50;11.40;;;6.00;;
31974;SDS011;18500;43.618;1.474;2024-03-06T08:01:16;11.68;;;6.75;;
31974;SDS011;18500;43.618;1.474;2024-03-06T08:03:42;13.25;;;6.15;;
31974;SDS011;18500;43.618;1.474;2024-03-06T08:06:08;9.90;;;6.68;;
31974;SDS011;18500;43.618;1.474;2024-03-06T08:08:35;49.65;;;12.40;;
31974;SDS011;18500;43.618;1.474;2024-03-06T08:11:01;33.42;;;9.55;;
31974;SDS011;18500;43.618;1.474;2024-03-06T08:13:27;9.50;;;6.53;;
31974;SDS011;18500;43.618;1.474;2024-03-06T08:15:53;11.35;;;6.15;;
31974;SDS011;18500;43.618;1.474;2024-03-06T08:18:18;17.42;;;6.68;;
31974;SDS011;18500;43.618;1.474;2024-03-06T08:20:44;12.68;;;6.22;;
31974;SDS011;18500;43.618;1.474;2024-03-06T08:23:10;13.07;;;6.80;;
31974;SDS011;18500;43.618;1.474;2024-03-06T08:25:35;14.95;;;7.22;;
31974;SDS011;18500;43.618;1.474;2024-03-06T08:28:01;12.55;;;6.65;;
31974;SDS011;18500;43.618;1.474;2024-03-06T08:30:30;13.98;;;7.35;;
31974;SDS011;18500;43.618;1.474;2024-03-06T08:32:57;16.90;;;7.80;;
31974;SDS011;18500;43.618;1.474;2024-03-06T08:35:23;13.88;;;6.55;;
31974;SDS011;18500;43.618;1.474;2024-03-06T08:37:49;9.27;;;5.63;;
31974;SDS011;18500;43.618;1.474;2024-03-06T08:40:15;9.80;;;6.40;;
31974;SDS011;18500;43.618;1.474;2024-03-06T08:42:48;12.68;;;6.57;;
31974;SDS011;18500;43.618;1.474;2024-03-06T08:45:14;13.68;;;6.95;;
31974;SDS011;18500;43.618;1.474;2024-03-06T08:47:41;10.32;;;6.20;;
31974;SDS011;18500;43.618;1.474;2024-03-06T08:50:08;10.65;;;7.03;;
31974;SDS011;18500;43.618;1.474;2024-03-06T08:52:35;12.85;;;6.43;;
31974;SDS011;18500;43.618;1.474;2024-03-06T08:55:01;12.63;;;6.15;;
31974;SDS011;18500;43.618;1.474;2024-03-06T08:57:34;11.10;;;6.40;;
31974;SDS011;18500;43.618;1.474;2024-03-06T09:00:02;14.75;;;7.40;;
31974;SDS011;18500;43.618;1.474;2024-03-06T09:02:28;10.27;;;6.18;;
31974;SDS011;18500;43.618;1.474;2024-03-06T09:04:54;21.60;;;7.57;;
31974;SDS011;18500;43.618;1.474;2024-03-06T09:07:20;28.38;;;7.50;;
31974;SDS011;18500;43.618;1.474;2024-03-06T09:09:49;101.82;;;13.52;;
31974;SDS011;18500;43.618;1.474;2024-03-06T09:12:15;11.00;;;6.43;;
31974;SDS011;18500;43.618;1.474;2024-03-06T09:14:41;15.10;;;6.18;;
31974;SDS011;18500;43.618;1.474;2024-03-06T09:17:07;10.60;;;6.72;;
31974;SDS011;18500;43.618;1.474;2024-03-06T09:19:35;15.20;;;6.22;;
31974;SDS011;18500;43.618;1.474;2024-03-06T09:22:01;14.00;;;7.00;;
31974;SDS011;18500;43.618;1.474;2024-03-06T09:24:28;11.13;;;5.95;;
31974;SDS011;18500;43.618;1.474;2024-03-06T09:26:54;13.77;;;7.25;;
31974;SDS011;18500;43.618;1.474;2024-03-06T09:29:20;10.85;;;5.60;;
31974;SDS011;18500;43.618;1.474;2024-03-06T09:31:46;14.27;;;6.30;;
31974;SDS011;18500;43.618;1.474;2024-03-06T09:34:15;21.45;;;6.72;;
31974;SDS011;18500;43.618;1.474;2024-03-06T09:36:48;13.45;;;5.97;;
31974;SDS011;18500;43.618;1.474;2024-03-06T09:39:15;13.15;;;6.00;;
31974;SDS011;18500;43.618;1.474;2024-03-06T09:41:45;16.83;;;6.95;;
31974;SDS011;18500;43.618;1.474;2024-03-06T09:44:12;11.48;;;6.20;;
31974;SDS011;18500;43.618;1.474;2024-03-06T09:46:42;19.75;;;10.60;;
31974;SDS011;18500;43.618;1.474;2024-03-06T09:49:12;15.50;;;8.10;;
31974;SDS011;18500;43.618;1.474;2024-03-06T09:51:44;15.52;;;7.20;;
31974;SDS011;18500;43.618;1.474;2024-03-06T09:54:11;8.40;;;5.05;;
31974;SDS011;18500;43.618;1.474;2024-03-06T09:56:40;8.95;;;5.53;;
31974;SDS011;18500;43.618;1.474;2024-03-06T09:59:10;12.75;;;6.68;;
31974;SDS011;18500;43.618;1.474;2024-03-06T10:01:39;16.35;;;7.10;;
31974;SDS011;18500;43.618;1.474;2024-03-06T10:04:22;10.40;;;5.63;;
31974;SDS011;18500;43.618;1.474;2024-03-06T10:06:58;17.70;;;6.43;;
31974;SDS011;18500;43.618;1.474;2024-03-06T10:09:24;7.70;;;5.88;;
31974;SDS011;18500;43.618;1.474;2024-03-06T10:11:51;11.82;;;5.95;;
31974;SDS011;18500;43.618;1.474;2024-03-06T10:14:22;20.58;;;6.03;;
31974;SDS011;18500;43.618;1.474;2024-03-06T10:16:57;18.33;;;5.68;;
31974;SDS011;18500;43.618;1.474;2024-03-06T10:19:27;11.73;;;5.78;;
31974;SDS011;18500;43.618;1.474;2024-03-06T10:21:55;14.52;;;7.20;;
31974;SDS011;18500;43.618;1.474;2024-03-06T10:24:25;14.82;;;5.82;;
31974;SDS011;18500;43.618;1.474;2024-03-06T10:26:55;10.40;;;5.68;;
31974;SDS011;18500;43.618;1.474;2024-03-06T10:29:25;13.02;;;7.25;;
31974;SDS011;18500;43.618;1.474;2024-03-06T10:31:52;15.25;;;7.40;;
31974;SDS011;18500;43.618;1.474;2024-03-06T10:34:25;10.07;;;7.13;;
31974;SDS011;18500;43.618;1.474;2024-03-06T10:36:56;15.18;;;6.18;;
31974;SDS011;18500;43.618;1.474;2024-03-06T10:39:23;17.27;;;6.53;;
31974;SDS011;18500;43.618;1.474;2024-03-06T10:41:55;17.52;;;5.90;;
31974;SDS011;18500;43.618;1.474;2024-03-06T10:44:23;15.80;;;6.28;;
31974;SDS011;18500;43.618;1.474;2024-03-06T10:46:59;7.22;;;5.47;;
31974;SDS011;18500;43.618;1.474;2024-03-06T10:49:29;19.00;;;7.05;;
31974;SDS011;18500;43.618;1.474;2024-03-06T10:51:59;11.60;;;6.72;;
31974;SDS011;18500;43.618;1.474;2024-03-06T10:54:29;13.93;;;5.85;;
31974;SDS011;18500;43.618;1.474;2024-03-06T10:56:57;10.82;;;4.97;;
31974;SDS011;18500;43.618;1.474;2024-03-06T10:59:24;12.77;;;6.10;;
31974;SDS011;18500;43.618;1.474;2024-03-06T11:01:54;14.45;;;6.38;;
31974;SDS011;18500;43.618;1.474;2024-03-06T11:04:21;10.75;;;6.03;;
31974;SDS011;18500;43.618;1.474;2024-03-06T11:06:51;23.23;;;6.28;;
31974;SDS011;18500;43.618;1.474;2024-03-06T11:09:17;17.00;;;8.18;;
31974;SDS011;18500;43.618;1.474;2024-03-06T11:11:49;8.10;;;5.28;;
31974;SDS011;18500;43.618;1.474;2024-03-06T11:14:17;15.13;;;6.10;;
31974;SDS011;18500;43.618;1.474;2024-03-06T11:19:32;11.32;;;6.10;;
31974;SDS011;18500;43.618;1.474;2024-03-06T11:22:17;15.63;;;6.32;;
31974;SDS011;18500;43.618;1.474;2024-03-06T11:24:43;15.98;;;7.18;;
31974;SDS011;18500;43.618;1.474;2024-03-06T11:27:09;8.98;;;5.70;;
31974;SDS011;18500;43.618;1.474;2024-03-06T11:32:57;12.45;;;6.13;;
31974;SDS011;18500;43.618;1.474;2024-03-06T11:35:29;11.27;;;6.78;;
31974;SDS011;18500;43.618;1.474;2024-03-06T11:37:54;18.30;;;7.65;;
31974;SDS011;18500;43.618;1.474;2024-03-06T11:40:23;11.98;;;6.90;;
31974;SDS011;18500;43.618;1.474;2024-03-06T11:42:49;14.57;;;11.32;;
31974;SDS011;18500;43.618;1.474;2024-03-06T11:45:16;13.90;;;9.95;;
31974;SDS011;18500;43.618;1.474;2024-03-06T11:48:00;33.97;;;16.73;;
31974;SDS011;18500;43.618;1.474;2024-03-06T11:50:27;19.23;;;10.40;;
31974;SDS011;18500;43.618;1.474;2024-03-06T11:52:56;14.65;;;12.02;;
31974;SDS011;18500;43.618;1.474;2024-03-06T11:55:22;16.67;;;10.48;;
31974;SDS011;18500;43.618;1.474;2024-03-06T11:57:50;14.85;;;9.65;;
31974;SDS011;18500;43.618;1.474;2024-03-06T12:00:16;14.10;;;11.68;;
31974;SDS011;18500;43.618;1.474;2024-03-06T12:02:43;21.10;;;17.65;;
31974;SDS011;18500;43.618;1.474;2024-03-06T12:05:11;18.40;;;16.90;;
31974;SDS011;18500;43.618;1.474;2024-03-06T12:10:12;16.88;;;14.60;;
31974;SDS011;18500;43.618;1.474;2024-03-06T12:12:38;15.25;;;13.95;;
31974;SDS011;18500;43.618;1.474;2024-03-06T12:15:06;12.75;;;11.45;;
31974;SDS011;18500;43.618;1.474;2024-03-06T12:17:43;19.30;;;10.95;;
31974;SDS011;18500;43.618;1.474;2024-03-06T12:20:11;18.70;;;16.30;;
31974;SDS011;18500;43.618;1.474;2024-03-06T12:22:53;21.05;;;19.35;;
31974;SDS011;18500;43.618;1.474;2024-03-06T12:25:24;16.58;;;15.15;;
31974;SDS011;18500;43.618;1.474;2024-03-06T12:27:52;14.10;;;12.73;;
31974;SDS011;18500;43.618;1.474;2024-03-06T12:30:19;25.73;;;22.80;;
31974;SDS011;18500;43.618;1.474;2024-03-06T12:33:00;30.65;;;27.35;;
31974;SDS011;18500;43.618;1.474;2024-03-06T12:35:29;20.90;;;19.10;;
31974;SDS011;18500;43.618;1.474;2024-03-06T12:37:55;17.20;;;15.82;;
31974;SDS011;18500;43.618;1.474;2024-03-06T12:40:21;22.15;;;19.70;;
31974;SDS011;18500;43.618;1.474;2024-03-06T12:42:47;20.25;;;18.20;;
31974;SDS011;18500;43.618;1.474;2024-03-06T12:45:14;22.45;;;20.98;;
31974;SDS011;18500;43.618;1.474;2024-03-06T12:47:40;33.00;;;30.73;;
31974;SDS011;18500;43.618;1.474;2024-03-06T12:50:07;30.48;;;28.13;;
31974;SDS011;18500;43.618;1.474;2024-03-06T12:52:34;28.15;;;26.05;;
31974;SDS011;18500;43.618;1.474;2024-03-06T12:55:00;29.02;;;26.83;;
31974;SDS011;18500;43.618;1.474;2024-03-06T12:57:26;30.98;;;28.42;;
31974;SDS011;18500;43.618;1.474;2024-03-06T12:59:52;29.05;;;26.20;;
31974;SDS011;18500;43.618;1.474;2024-03-06T13:02:18;32.45;;;30.08;;
31974;SDS011;18500;43.618;1.474;2024-03-06T13:04:44;30.27;;;28.05;;
31974;SDS011;18500;43.618;1.474;2024-03-06T13:07:11;30.65;;;28.63;;
31974;SDS011;18500;43.618;1.474;2024-03-06T13:09:36;27.45;;;25.55;;
31974;SDS011;18500;43.618;1.474;2024-03-06T13:12:03;22.45;;;20.85;;
31974;SDS011;18500;43.618;1.474;2024-03-06T13:14:30;18.13;;;16.65;;
31974;SDS011;18500;43.618;1.474;2024-03-06T13:16:55;16.50;;;14.70;;
31974;SDS011;18500;43.618;1.474;2024-03-06T13:19:21;15.15;;;13.57;;
31974;SDS011;18500;43.618;1.474;2024-03-06T13:21:47;14.57;;;13.15;;
31974;SDS011;18500;43.618;1.474;2024-03-06T13:24:13;11.85;;;10.57;;
31974;SDS011;18500;43.618;1.474;2024-03-06T13:26:39;14.63;;;13.35;;
31974;SDS011;18500;43.618;1.474;2024-03-06T13:29:05;21.77;;;20.02;;
31974;SDS011;18500;43.618;1.474;2024-03-06T13:31:34;24.33;;;22.08;;
31974;SDS011;18500;43.618;1.474;2024-03-06T13:34:01;15.88;;;14.43;;
31974;SDS011;18500;43.618;1.474;2024-03-06T13:36:28;22.58;;;20.65;;
31974;SDS011;18500;43.618;1.474;2024-03-06T13:38:54;22.55;;;20.25;;
31974;SDS011;18500;43.618;1.474;2024-03-06T13:41:19;24.35;;;22.65;;
31974;SDS011;18500;43.618;1.474;2024-03-06T13:43:45;17.88;;;16.17;;
31974;SDS011;18500;43.618;1.474;2024-03-06T13:46:11;15.93;;;13.77;;
31974;SDS011;18500;43.618;1.474;2024-03-06T13:48:37;13.50;;;12.30;;
31974;SDS011;18500;43.618;1.474;2024-03-06T13:51:02;16.10;;;10.10;;
31974;SDS011;18500;43.618;1.474;2024-03-06T13:53:29;9.25;;;7.53;;
31974;SDS011;18500;43.618;1.474;2024-03-06T13:55:55;7.65;;;3.08;;
31974;SDS011;18500;43.618;1.474;2024-03-06T13:58:21;11.75;;;3.55;;
31974;SDS011;18500;43.618;1.474;2024-03-06T14:00:47;8.00;;;3.40;;
31974;SDS011;18500;43.618;1.474;2024-03-06T14:03:12;7.60;;;3.72;;
31974;SDS011;18500;43.618;1.474;2024-03-06T14:05:38;10.30;;;3.65;;
31974;SDS011;18500;43.618;1.474;2024-03-06T14:08:04;11.27;;;3.92;;
31974;SDS011;18500;43.618;1.474;2024-03-06T14:10:30;7.70;;;3.63;;
31974;SDS011;18500;43.618;1.474;2024-03-06T14:12:59;10.45;;;3.80;;
31974;SDS011;18500;43.618;1.474;2024-03-06T14:15:25;9.95;;;3.50;;
31974;SDS011;18500;43.618;1.474;2024-03-06T14:17:52;9.80;;;4.07;;
31974;SDS011;18500;43.618;1.474;2024-03-06T14:20:20;11.05;;;3.10;;
31974;SDS011;18500;43.618;1.474;2024-03-06T14:22:47;6.30;;;2.90;;
31974;SDS011;18500;43.618;1.474;2024-03-06T14:25:14;5.93;;;3.42;;
31974;SDS011;18500;43.618;1.474;2024-03-06T14:27:41;8.27;;;2.85;;
31974;SDS011;18500;43.618;1.474;2024-03-06T14:30:07;6.82;;;3.65;;
31974;SDS011;18500;43.618;1.474;2024-03-06T14:32:33;6.68;;;3.75;;
31974;SDS011;18500;43.618;1.474;2024-03-06T14:34:59;9.43;;;3.92;;
31974;SDS011;18500;43.618;1.474;2024-03-06T14:37:25;7.30;;;3.83;;
31974;SDS011;18500;43.618;1.474;2024-03-06T14:39:51;7.32;;;4.00;;
31974;SDS011;18500;43.618;1.474;2024-03-06T14:42:16;9.70;;;4.75;;
31974;SDS011;18500;43.618;1.474;2024-03-06T14:44:42;8.13;;;3.65;;
31974;SDS011;18500;43.618;1.474;2024-03-06T14:47:11;9.60;;;4.32;;
31974;SDS011;18500;43.618;1.474;2024-03-06T14:49:37;11.13;;;4.75;;
31974;SDS011;18500;43.618;1.474;2024-03-06T14:52:05;7.28;;;4.75;;
31974;SDS011;18500;43.618;1.474;2024-03-06T14:54:31;9.60;;;5.68;;
31974;SDS011;18500;43.618;1.474;2024-03-06T14:56:57;9.77;;;4.55;;
31974;SDS011;18500;43.618;1.474;2024-03-06T14:59:23;14.02;;;5.50;;
31974;SDS011;18500;43.618;1.474;2024-03-06T15:01:49;8.32;;;4.88;;
31974;SDS011;18500;43.618;1.474;2024-03-06T15:04:16;14.77;;;6.68;;
31974;SDS011;18500;43.618;1.474;2024-03-06T15:06:42;9.57;;;5.53;;
31974;SDS011;18500;43.618;1.474;2024-03-06T15:09:08;11.13;;;5.18;;
31974;SDS011;18500;43.618;1.474;2024-03-06T15:11:38;7.80;;;4.25;;
31974;SDS011;18500;43.618;1.474;2024-03-06T15:14:05;13.65;;;4.40;;
31974;SDS011;18500;43.618;1.474;2024-03-06T15:16:32;17.50;;;5.20;;
31974;SDS011;18500;43.618;1.474;2024-03-06T15:18:59;8.00;;;4.35;;
31974;SDS011;18500;43.618;1.474;2024-03-06T15:21:26;9.48;;;4.57;;
31974;SDS011;18500;43.618;1.474;2024-03-06T15:23:51;10.60;;;4.63;;
31974;SDS011;18500;43.618;1.474;2024-03-06T15:26:18;9.38;;;4.40;;
31974;SDS011;18500;43.618;1.474;2024-03-06T15:28:44;8.90;;;4.72;;
31974;SDS011;18500;43.618;1.474;2024-03-06T15:31:10;8.13;;;6.20;;
31974;SDS011;18500;43.618;1.474;2024-03-06T15:33:36;9.45;;;6.55;;
31974;SDS011;18500;43.618;1.474;2024-03-06T15:36:01;10.18;;;6.00;;
31974;SDS011;18500;43.618;1.474;2024-03-06T15:38:27;9.38;;;5.78;;
31974;SDS011;18500;43.618;1.474;2024-03-06T15:40:53;12.02;;;6.75;;
31974;SDS011;18500;43.618;1.474;2024-03-06T15:43:19;8.82;;;6.50;;
31974;SDS011;18500;43.618;1.474;2024-03-06T15:45:45;11.00;;;6.55;;
31974;SDS011;18500;43.618;1.474;2024-03-06T15:48:10;16.85;;;7.13;;
31974;SDS011;18500;43.618;1.474;2024-03-06T15:50:39;9.40;;;8.32;;
31974;SDS011;18500;43.618;1.474;2024-03-06T15:53:08;15.07;;;7.32;;
31974;SDS011;18500;43.618;1.474;2024-03-06T15:55:35;14.75;;;7.45;;
31974;SDS011;18500;43.618;1.474;2024-03-06T15:58:04;11.52;;;8.20;;
31974;SDS011;18500;43.618;1.474;2024-03-06T16:00:30;10.30;;;9.27;;
31974;SDS011;18500;43.618;1.474;2024-03-06T16:02:56;11.02;;;8.27;;
31974;SDS011;18500;43.618;1.474;2024-03-06T16:05:23;8.57;;;7.47;;
31974;SDS011;18500;43.618;1.474;2024-03-06T16:07:49;11.77;;;8.80;;
31974;SDS011;18500;43.618;1.474;2024-03-06T16:10:16;11.00;;;9.75;;
31974;SDS011;18500;43.618;1.474;2024-03-06T16:12:42;12.02;;;9.18;;
31974;SDS011;18500;43.618;1.474;2024-03-06T16:15:08;12.15;;;8.93;;
31974;SDS011;18500;43.618;1.474;2024-03-06T16:17:34;9.13;;;8.13;;
31974;SDS011;18500;43.618;1.474;2024-03-06T16:20:00;9.35;;;8.40;;
31974;SDS011;18500;43.618;1.474;2024-03-06T16:22:29;11.50;;;8.63;;
31974;SDS011;18500;43.618;1.474;2024-03-06T16:24:56;9.88;;;8.90;;
31974;SDS011;18500;43.618;1.474;2024-03-06T16:27:22;13.60;;;11.43;;
31974;SDS011;18500;43.618;1.474;2024-03-06T16:29:48;13.43;;;10.40;;
31974;SDS011;18500;43.618;1.474;2024-03-06T16:32:13;12.05;;;11.05;;
31974;SDS011;18500;43.618;1.474;2024-03-06T16:34:39;13.45;;;11.93;;
31974;SDS011;18500;43.618;1.474;2024-03-06T16:37:05;14.27;;;12.88;;
31974;SDS011;18500;43.618;1.474;2024-03-06T16:39:31;13.38;;;12.38;;
31974;SDS011;18500;43.618;1.474;2024-03-06T16:41:57;12.50;;;11.60;;
31974;SDS011;18500;43.618;1.474;2024-03-06T16:44:22;12.80;;;11.40;;
31974;SDS011;18500;43.618;1.474;2024-03-06T16:46:48;13.07;;;11.90;;
31974;SDS011;18500;43.618;1.474;2024-03-06T16:49:14;12.98;;;11.98;;
31974;SDS011;18500;43.618;1.474;2024-03-06T16:51:40;13.10;;;12.10;;
31974;SDS011;18500;43.618;1.474;2024-03-06T16:54:05;16.77;;;12.70;;
31974;SDS011;18500;43.618;1.474;2024-03-06T16:56:32;12.30;;;11.40;;
31974;SDS011;18500;43.618;1.474;2024-03-06T16:58:58;15.65;;;14.55;;
31974;SDS011;18500;43.618;1.474;2024-03-06T17:01:23;14.40;;;13.20;;
31974;SDS011;18500;43.618;1.474;2024-03-06T17:03:49;14.10;;;12.48;;
31974;SDS011;18500;43.618;1.474;2024-03-06T17:06:15;15.23;;;13.95;;
31974;SDS011;18500;43.618;1.474;2024-03-06T17:08:41;16.73;;;15.30;;
31974;SDS011;18500;43.618;1.474;2024-03-06T17:11:11;15.45;;;14.45;;
31974;SDS011;18500;43.618;1.474;2024-03-06T17:13:37;17.10;;;15.88;;
31974;SDS011;18500;43.618;1.474;2024-03-06T17:16:07;18.50;;;16.85;;
31974;SDS011;18500;43.618;1.474;2024-03-06T17:18:34;16.13;;;15.13;;
31974;SDS011;18500;43.618;1.474;2024-03-06T17:21:04;16.67;;;15.20;;
31974;SDS011;18500;43.618;1.474;2024-03-06T17:23:30;15.50;;;13.88;;
31974;SDS011;18500;43.618;1.474;2024-03-06T17:25:57;15.52;;;14.43;;
31974;SDS011;18500;43.618;1.474;2024-03-06T17:28:23;13.40;;;12.43;;
31974;SDS011;18500;43.618;1.474;2024-03-06T17:30:49;14.80;;;13.25;;
31974;SDS011;18500;43.618;1.474;2024-03-06T17:33:16;13.55;;;12.25;;
31974;SDS011;18500;43.618;1.474;2024-03-06T17:35:42;14.15;;;12.93;;
31974;SDS011;18500;43.618;1.474;2024-03-06T17:38:09;11.80;;;9.27;;
31974;SDS011;18500;43.618;1.474;2024-03-06T17:40:35;10.90;;;9.80;;
31974;SDS011;18500;43.618;1.474;2024-03-06T17:43:01;11.18;;;9.82;;
31974;SDS011;18500;43.618;1.474;2024-03-06T17:45:27;15.90;;;12.70;;
31974;SDS011;18500;43.618;1.474;2024-03-06T17:47:54;13.30;;;12.15;;
31974;SDS011;18500;43.618;1.474;2024-03-06T17:50:20;12.35;;;11.35;;
31974;SDS011;18500;43.618;1.474;2024-03-06T17:52:46;12.73;;;11.43;;
31974;SDS011;18500;43.618;1.474;2024-03-06T17:55:12;13.38;;;11.23;;
31974;SDS011;18500;43.618;1.474;2024-03-06T17:57:38;11.30;;;10.38;;
31974;SDS011;18500;43.618;1.474;2024-03-06T18:00:13;11.43;;;10.40;;
31974;SDS011;18500;43.618;1.474;2024-03-06T18:05:08;10.15;;;9.25;;
31974;SDS011;18500;43.618;1.474;2024-03-06T18:07:34;13.93;;;10.38;;
31974;SDS011;18500;43.618;1.474;2024-03-06T18:10:00;10.20;;;9.30;;
31974;SDS011;18500;43.618;1.474;2024-03-06T18:12:26;12.82;;;10.75;;
31974;SDS011;18500;43.618;1.474;2024-03-06T18:14:53;10.32;;;8.73;;
31974;SDS011;18500;43.618;1.474;2024-03-06T18:17:22;11.13;;;10.25;;
31974;SDS011;18500;43.618;1.474;2024-03-06T18:19:52;12.18;;;11.13;;
31974;SDS011;18500;43.618;1.474;2024-03-06T18:22:18;15.45;;;11.50;;
31974;SDS011;18500;43.618;1.474;2024-03-06T18:24:44;13.32;;;11.60;;
31974;SDS011;18500;43.618;1.474;2024-03-06T18:27:10;12.70;;;11.52;;
31974;SDS011;18500;43.618;1.474;2024-03-06T18:29:36;11.88;;;10.68;;
31974;SDS011;18500;43.618;1.474;2024-03-06T18:32:02;15.48;;;11.07;;
31974;SDS011;18500;43.618;1.474;2024-03-06T18:34:29;23.02;;;14.15;;
31974;SDS011;18500;43.618;1.474;2024-03-06T18:36:58;18.30;;;13.68;;
31974;SDS011;18500;43.618;1.474;2024-03-06T18:39:24;13.73;;;10.77;;
31974;SDS011;18500;43.618;1.474;2024-03-06T18:41:50;12.93;;;9.70;;
31974;SDS011;18500;43.618;1.474;2024-03-06T18:44:16;10.80;;;9.05;;
31974;SDS011;18500;43.618;1.474;2024-03-06T18:46:42;9.82;;;8.15;;
31974;SDS011;18500;43.618;1.474;2024-03-06T18:49:07;8.70;;;7.95;;
31974;SDS011;18500;43.618;1.474;2024-03-06T18:51:34;13.68;;;7.95;;
31974;SDS011;18500;43.618;1.474;2024-03-06T18:54:00;9.43;;;8.43;;
31974;SDS011;18500;43.618;1.474;2024-03-06T18:56:26;10.85;;;9.18;;
31974;SDS011;18500;43.618;1.474;2024-03-06T18:58:51;12.23;;;8.73;;
31974;SDS011;18500;43.618;1.474;2024-03-06T19:01:17;11.80;;;8.43;;
31974;SDS011;18500;43.618;1.474;2024-03-06T19:03:43;12.30;;;10.90;;
31974;SDS011;18500;43.618;1.474;2024-03-06T19:06:10;14.50;;;10.55;;
31974;SDS011;18500;43.618;1.474;2024-03-06T19:08:38;14.02;;;10.82;;
31974;SDS011;18500;43.618;1.474;2024-03-06T19:11:04;11.38;;;9.80;;
31974;SDS011;18500;43.618;1.474;2024-03-06T19:13:30;12.48;;;9.43;;
31974;SDS011;18500;43.618;1.474;2024-03-06T19:15:56;12.48;;;8.90;;
31974;SDS011;18500;43.618;1.474;2024-03-06T19:18:21;11.55;;;8.07;;
31974;SDS011;18500;43.618;1.474;2024-03-06T19:20:47;10.13;;;9.23;;
31974;SDS011;18500;43.618;1.474;2024-03-06T19:23:13;12.52;;;8.45;;
31974;SDS011;18500;43.618;1.474;2024-03-06T19:25:39;8.02;;;6.72;;
31974;SDS011;18500;43.618;1.474;2024-03-06T19:28:05;13.35;;;8.57;;
31974;SDS011;18500;43.618;1.474;2024-03-06T19:30:31;10.90;;;7.78;;
31974;SDS011;18500;43.618;1.474;2024-03-06T19:32:57;13.07;;;7.35;;
31974;SDS011;18500;43.618;1.474;2024-03-06T19:35:23;15.77;;;8.00;;
31974;SDS011;18500;43.618;1.474;2024-03-06T19:37:50;12.55;;;7.57;;
31974;SDS011;18500;43.618;1.474;2024-03-06T19:40:16;11.55;;;7.53;;
31974;SDS011;18500;43.618;1.474;2024-03-06T19:42:41;10.10;;;7.78;;
31974;SDS011;18500;43.618;1.474;2024-03-06T19:45:08;12.65;;;8.52;;
31974;SDS011;18500;43.618;1.474;2024-03-06T19:47:35;14.20;;;8.68;;
31974;SDS011;18500;43.618;1.474;2024-03-06T19:50:01;16.50;;;9.45;;
31974;SDS011;18500;43.618;1.474;2024-03-06T19:52:27;20.58;;;11.43;;
31974;SDS011;18500;43.618;1.474;2024-03-06T19:54:52;29.02;;;10.00;;
31974;SDS011;18500;43.618;1.474;2024-03-06T19:57:18;36.00;;;10.80;;
31974;SDS011;18500;43.618;1.474;2024-03-06T19:59:44;27.70;;;8.85;;
31974;SDS011;18500;43.618;1.474;2024-03-06T20:02:09;17.52;;;8.05;;
31974;SDS011;18500;43.618;1.474;2024-03-06T20:04:35;15.27;;;8.10;;
31974;SDS011;18500;43.618;1.474;2024-03-06T20:07:00;11.43;;;8.52;;
31974;SDS011;18500;43.618;1.474;2024-03-06T20:09:26;20.05;;;8.20;;
31974;SDS011;18500;43.618;1.474;2024-03-06T20:11:53;16.42;;;8.32;;
31974;SDS011;18500;43.618;1.474;2024-03-06T20:14:19;13.68;;;7.85;;
31974;SDS011;18500;43.618;1.474;2024-03-06T20:16:45;17.55;;;9.32;;
31974;SDS011;18500;43.618;1.474;2024-03-06T20:19:11;20.65;;;8.48;;
31974;SDS011;18500;43.618;1.474;2024-03-06T20:21:37;13.30;;;9.18;;
31974;SDS011;18500;43.618;1.474;2024-03-06T20:24:03;11.18;;;8.73;;
31974;SDS011;18500;43.618;1.474;2024-03-06T20:26:29;16.73;;;9.88;;
31974;SDS011;18500;43.618;1.474;2024-03-06T20:28:55;20.48;;;9.10;;
31974;SDS011;18500;43.618;1.474;2024-03-06T20:31:20;13.32;;;9.05;;
31974;SDS011;18500;43.618;1.474;2024-03-06T20:33:46;14.05;;;9.05;;
31974;SDS011;18500;43.618;1.474;2024-03-06T20:36:12;15.05;;;8.32;;
31974;SDS011;18500;43.618;1.474;2024-03-06T20:38:38;12.00;;;7.72;;
31974;SDS011;18500;43.618;1.474;2024-03-06T20:41:03;20.17;;;10.95;;
31974;SDS011;18500;43.618;1.474;2024-03-06T20:43:29;19.05;;;9.43;;
31974;SDS011;18500;43.618;1.474;2024-03-06T20:45:55;20.35;;;11.35;;
31974;SDS011;18500;43.618;1.474;2024-03-06T20:48:21;20.30;;;9.50;;
31974;SDS011;18500;43.618;1.474;2024-03-06T20:50:50;18.23;;;9.45;;
31974;SDS011;18500;43.618;1.474;2024-03-06T20:53:15;11.10;;;8.60;;
31974;SDS011;18500;43.618;1.474;2024-03-06T20:55:41;9.63;;;7.97;;
31974;SDS011;18500;43.618;1.474;2024-03-06T20:58:11;16.23;;;9.77;;
31974;SDS011;18500;43.618;1.474;2024-03-06T21:00:38;21.50;;;9.15;;
31974;SDS011;18500;43.618;1.474;2024-03-06T21:03:05;18.90;;;9.60;;
31974;SDS011;18500;43.618;1.474;2024-03-06T21:05:31;18.20;;;10.10;;
31974;SDS011;18500;43.618;1.474;2024-03-06T21:07:57;22.98;;;11.05;;
31974;SDS011;18500;43.618;1.474;2024-03-06T21:10:23;15.18;;;9.20;;
31974;SDS011;18500;43.618;1.474;2024-03-06T21:12:49;17.52;;;9.93;;
31974;SDS011;18500;43.618;1.474;2024-03-06T21:15:15;14.85;;;8.68;;
31974;SDS011;18500;43.618;1.474;2024-03-06T21:17:41;19.60;;;9.75;;
31974;SDS011;18500;43.618;1.474;2024-03-06T21:20:08;16.10;;;8.88;;
31974;SDS011;18500;43.618;1.474;2024-03-06T21:22:40;12.98;;;9.50;;
31974;SDS011;18500;43.618;1.474;2024-03-06T21:25:07;13.75;;;9.23;;
31974;SDS011;18500;43.618;1.474;2024-03-06T21:27:34;17.20;;;10.02;;
31974;SDS011;18500;43.618;1.474;2024-03-06T21:30:01;20.13;;;9.57;;
31974;SDS011;18500;43.618;1.474;2024-03-06T21:32:28;15.43;;;9.95;;
31974;SDS011;18500;43.618;1.474;2024-03-06T21:34:54;18.02;;;8.68;;